Time;durP1;ratioP1;P1;durP2;ratioP2;P2;SDS_P1;SDS_P2;PMS_P1;PMS_P2;Temp;Humidity;BMP_temperature;BMP_pressure;BME280_temperature;BME280_humidity;BME280_pressure;Samples;Min_cycle;Max_cycle;Signal;HPM_P1;HPM_P2
2022/09/21 00:06:07;;;;;;;;;0.00;0.00;;;;;;;;6191002;22;46000;-96
2022/09/21 00:08:33;;;;;;;;;0.00;0.00;;;;;;;;6228177;22;45260;-96
2022/09/21 00:11:03;;;;;;;;;0.00;0.00;;;;;;;;6202241;23;44666;-96
2022/09/21 00:13:31;;;;;;;;;0.00;0.00;;;;;;;;6204984;23;44830;-96
2022/09/21 00:15:57;;;;;;;;;0.00;0.00;;;;;;;;6207842;23;46628;-96
2022/09/21 00:18:35;;;;;;;;;0.00;0.00;;;;;;;;6211081;22;44572;-96
2022/09/21 00:21:05;;;;;;;;;0.00;0.00;;;;;;;;6207911;23;45270;-96
2022/09/21 00:24:01;;;;;;;;;0.00;0.00;;;;;;;;6208387;22;44855;-96
2022/09/21 00:26:33;;;;;;;;;0.00;0.00;;;;;;;;6209811;23;45418;-96
2022/09/21 01:23:18;;;;;;;;;0.00;0.00;;;;;;;;6200096;23;44678;-96
2022/09/21 01:28:57;;;;;;;;;0.00;0.00;;;;;;;;6192571;22;45648;-96
2022/09/21 01:31:58;;;;;;;;;0.00;0.00;;;;;;;;6210258;22;45659;-96
2022/09/21 01:34:57;;;;;;;;;0.00;0.00;;;;;;;;6198171;23;44730;-96
2022/09/21 01:37:44;;;;;;;;;0.00;0.00;;;;;;;;6110767;23;44722;-96
2022/09/21 01:40:28;;;;;;;;;0.00;0.00;;;;;;;;6026438;23;45345;-96
2022/09/21 01:43:04;;;;;;;;;0.00;0.00;;;;;;;;6029502;23;45732;-96
2022/09/21 01:45:37;;;;;;;;;0.00;0.00;;;;;;;;6031974;23;44863;-96
2022/09/21 01:48:12;;;;;;;;;0.00;0.00;;;;;;;;6030771;23;45131;-96
2022/09/21 01:50:43;;;;;;;;;0.00;0.00;;;;;;;;6026687;23;44836;-96
2022/09/21 01:55:56;;;;;;;;;0.00;0.00;;;;;;;;6206504;22;45314;-96
2022/09/21 01:59:02;;;;;;;;;0.00;0.00;;;;;;;;6193757;22;46233;-96
2022/09/21 02:01:34;;;;;;;;;0.00;0.00;;;;;;;;6166544;22;45778;-96
2022/09/21 02:04:02;;;;;;;;;0.00;0.00;;;;;;;;6176324;23;45381;-96
2022/09/21 02:06:29;;;;;;;;;0.00;0.00;;;;;;;;6177694;23;44703;-96
2022/09/21 02:08:54;;;;;;;;;0.00;0.00;;;;;;;;6179828;23;44729;-96
2022/09/21 02:11:21;;;;;;;;;0.00;0.00;;;;;;;;6174895;23;45390;-96
2022/09/21 02:13:49;;;;;;;;;0.00;0.00;;;;;;;;6173482;23;47081;-96
2022/09/21 02:16:35;;;;;;;;;0.00;0.00;;;;;;;;6174433;23;45341;-96
2022/09/21 02:19:23;;;;;;;;;0.00;0.00;;;;;;;;6202542;23;45270;-96
2022/09/21 02:21:57;;;;;;;;;0.00;0.00;;;;;;;;6176801;23;45396;-96
2022/09/21 02:24:33;;;;;;;;;0.00;0.00;;;;;;;;6176737;23;45392;-96
2022/09/21 02:27:38;;;;;;;;;3.00;3.00;;;;;;;;6202620;23;44774;-96
2022/09/21 02:30:14;;;;;;;;;0.00;0.00;;;;;;;;6178807;23;45224;-96
2022/09/21 02:33:04;;;;;;;;;0.00;0.00;;;;;;;;6202106;23;45271;-96
2022/09/21 02:35:47;;;;;;;;;0.00;0.00;;;;;;;;6204198;23;45238;-96
2022/09/21 02:38:31;;;;;;;;;0.00;0.00;;;;;;;;6180256;23;44696;-96
2022/09/21 02:41:06;;;;;;;;;0.00;0.00;;;;;;;;6180901;23;45189;-96
2022/09/21 02:43:57;;;;;;;;;0.00;0.00;;;;;;;;6180944;23;44817;-96
2022/09/21 02:46:41;;;;;;;;;0.00;0.00;;;;;;;;6207585;23;45686;-96
2022/09/21 02:49:22;;;;;;;;;0.00;0.00;;;;;;;;6208800;23;44721;-96
2022/09/21 02:52:05;;;;;;;;;0.00;0.00;;;;;;;;6183917;23;44682;-96
2022/09/21 02:54:33;;;;;;;;;0.00;0.00;;;;;;;;6205534;23;44753;-96
2022/09/21 02:56:59;;;;;;;;;0.00;0.00;;;;;;;;6178785;23;45561;-96
2022/09/21 02:59:26;;;;;;;;;0.00;0.00;;;;;;;;6179453;23;44895;-96
2022/09/21 03:02:12;;;;;;;;;0.00;0.00;;;;;;;;6195057;22;45460;-96
2022/09/21 03:04:40;;;;;;;;;0.00;0.00;;;;;;;;6232517;22;44739;-96
2022/09/21 03:07:06;;;;;;;;;0.00;0.00;;;;;;;;6212452;22;47461;-96
2022/09/21 03:09:37;;;;;;;;;0.00;0.00;;;;;;;;6239363;22;44715;-96
2022/09/21 03:12:03;;;;;;;;;0.00;0.00;;;;;;;;6239442;22;44786;-96
2022/09/21 03:14:31;;;;;;;;;0.00;0.00;;;;;;;;6211576;22;45326;-96
2022/09/21 03:16:57;;;;;;;;;0.00;0.00;;;;;;;;6208568;22;47541;-96
2022/09/21 03:19:24;;;;;;;;;0.00;0.00;;;;;;;;6207494;22;44846;-96
2022/09/21 03:22:13;;;;;;;;;0.00;0.00;;;;;;;;6210154;22;44757;-96
2022/09/21 03:24:46;;;;;;;;;0.00;0.00;;;;;;;;6240788;22;44861;-96
2022/09/21 03:27:16;;;;;;;;;0.00;0.00;;;;;;;;6215871;22;45483;-96
2022/09/21 03:29:52;;;;;;;;;6.00;6.00;;;;;;;;6211864;22;45106;-96
2022/09/21 03:32:29;;;;;;;;;0.00;0.00;;;;;;;;6239854;22;44691;-96
2022/09/21 03:34:55;;;;;;;;;0.00;0.00;;;;;;;;6239919;22;44941;-96
2022/09/21 03:37:31;;;;;;;;;0.00;0.00;;;;;;;;6186305;22;45570;-96
2022/09/21 03:40:18;;;;;;;;;0.00;0.00;;;;;;;;6237189;22;44805;-96
2022/09/21 03:42:47;;;;;;;;;0.00;0.00;;;;;;;;6235875;22;44735;-96
2022/09/21 03:45:34;;;;;;;;;0.00;0.00;;;;;;;;6175519;23;45440;-96
2022/09/21 03:51:00;;;;;;;;;0.00;0.00;;;;;;;;6178845;22;45036;-96
2022/09/21 03:53:25;;;;;;;;;0.00;0.00;;;;;;;;6178897;23;44775;-95
2022/09/21 03:56:16;;;;;;;;;0.00;0.00;;;;;;;;6178970;23;45216;-95
2022/09/21 04:03:54;;;;;;;;;0.00;0.00;;;;;;;;6171956;23;45246;-96
2022/09/21 04:06:21;;;;;;;;;0.00;0.00;;;;;;;;6149774;23;45416;-96
2022/09/21 04:08:46;;;;;;;;;0.00;0.00;;;;;;;;6148530;23;45981;-96
2022/09/21 04:11:17;;;;;;;;;0.00;0.00;;;;;;;;6173026;23;44687;-96
2022/09/21 04:14:05;;;;;;;;;0.00;0.00;;;;;;;;6144124;23;45265;-96
2022/09/21 04:16:30;;;;;;;;;0.00;0.00;;;;;;;;6145248;23;44809;-96
2022/09/21 04:18:56;;;;;;;;;0.00;0.00;;;;;;;;6119646;23;47022;-96
2022/09/21 04:21:21;;;;;;;;;0.00;0.00;;;;;;;;6119917;23;44676;-96
2022/09/21 04:23:48;;;;;;;;;0.00;0.00;;;;;;;;6145018;23;45158;-96
2022/09/21 04:26:27;;;;;;;;;0.00;0.00;;;;;;;;6151602;23;44880;-96
2022/09/21 04:28:55;;;;;;;;;0.00;0.00;;;;;;;;6168648;23;45599;-96
2022/09/21 04:34:04;;;;;;;;;0.00;0.00;;;;;;;;6181474;22;45754;-96
2022/09/21 04:36:31;;;;;;;;;0.00;0.00;;;;;;;;6203983;23;45346;-96
2022/09/21 04:38:57;;;;;;;;;0.00;0.00;;;;;;;;6198750;23;46735;-96
2022/09/21 04:41:23;;;;;;;;;0.00;0.00;;;;;;;;6199962;23;45203;-96
2022/09/21 04:43:48;;;;;;;;;0.00;0.00;;;;;;;;6205315;23;45263;-96
2022/09/21 04:46:15;;;;;;;;;0.00;0.00;;;;;;;;6200216;23;45151;-96
2022/09/21 04:48:40;;;;;;;;;0.00;0.00;;;;;;;;6201279;23;47513;-96
2022/09/21 04:51:06;;;;;;;;;0.00;0.00;;;;;;;;6200367;23;45137;-96
2022/09/21 04:53:32;;;;;;;;;0.00;0.00;;;;;;;;6203198;23;45433;-96
2022/09/21 04:55:58;;;;;;;;;0.00;0.00;;;;;;;;6201979;22;44758;-96
2022/09/21 04:58:24;;;;;;;;;0.00;0.00;;;;;;;;6176918;23;47413;-96
2022/09/21 05:00:54;;;;;;;;;100.33;85.00;;;;;;;;6203132;23;45355;-96
2022/09/21 05:05:56;;;;;;;;;0.00;0.00;;;;;;;;6206174;23;44795;-96
2022/09/21 05:11:07;;;;;;;;;0.00;0.00;;;;;;;;6206789;23;44726;-96
2022/09/21 05:13:36;;;;;;;;;0.00;0.00;;;;;;;;6206896;23;44770;-96
2022/09/21 05:26:55;;;;;;;;;0.00;0.00;;;;;;;;6214037;22;44925;-96
2022/09/21 05:29:28;;;;;;;;;0.00;0.00;;;;;;;;6176412;22;45599;-96
2022/09/21 05:32:22;;;;;;;;;0.00;0.00;;;;;;;;6177860;22;44793;-96
2022/09/21 05:34:55;;;;;;;;;0.00;0.00;;;;;;;;6173737;23;44809;-96
2022/09/21 05:37:49;;;;;;;;;0.00;0.00;;;;;;;;6200817;22;44884;-96
2022/09/21 05:40:35;;;;;;;;;0.00;0.00;;;;;;;;6203554;23;45704;-96
2022/09/21 05:43:01;;;;;;;;;0.00;0.00;;;;;;;;6172887;22;44718;-96
2022/09/21 05:45:27;;;;;;;;;0.00;0.00;;;;;;;;6167813;23;45357;-96
2022/09/21 05:47:53;;;;;;;;;0.00;0.00;;;;;;;;6163502;23;45370;-96
2022/09/21 05:50:25;;;;;;;;;0.00;0.00;;;;;;;;6186560;23;47897;-96
2022/09/21 05:53:16;;;;;;;;;0.00;0.00;;;;;;;;6189714;23;45417;-96
2022/09/21 05:55:57;;;;;;;;;0.00;0.00;;;;;;;;6168852;23;44934;-96
2022/09/21 05:58:39;;;;;;;;;0.00;0.00;;;;;;;;6167359;23;44786;-96
2022/09/21 06:01:13;;;;;;;;;0.00;0.00;;;;;;;;6175139;23;47466;-96
2022/09/21 06:03:39;;;;;;;;;0.00;0.00;;;;;;;;6142397;23;45345;-96
2022/09/21 06:06:06;;;;;;;;;0.00;0.00;;;;;;;;6165343;23;44825;-96
2022/09/21 06:08:32;;;;;;;;;0.00;0.00;;;;;;;;6167272;23;44786;-96
2022/09/21 06:11:21;;;;;;;;;0.00;0.00;;;;;;;;6154900;23;46098;-96
2022/09/21 06:14:07;;;;;;;;;0.00;0.00;;;;;;;;6175440;23;45242;-96
2022/09/21 06:17:00;;;;;;;;;0.00;0.00;;;;;;;;6177150;23;44838;-96
2022/09/21 06:19:51;;;;;;;;;0.00;0.00;;;;;;;;6172659;23;44722;-96
2022/09/21 06:22:22;;;;;;;;;0.00;0.00;;;;;;;;6179740;23;45412;-96
2022/09/21 06:27:23;;;;;;;;;0.00;0.00;;;;;;;;6166866;22;46899;-87
2022/09/21 06:29:48;;;;;;;;;0.00;0.00;;;;;;;;6178503;23;45321;-87
2022/09/21 06:32:13;;;;;;;;;0.00;0.00;;;;;;;;6178242;23;46856;-87
2022/09/21 06:34:39;;;;;;;;;0.00;0.00;;;;;;;;6177652;23;45971;-86
2022/09/21 06:37:04;;;;;;;;;0.00;0.00;;;;;;;;6179270;23;45349;-88
2022/09/21 06:39:29;;;;;;;;;0.00;0.00;;;;;;;;6180841;23;45406;-87
2022/09/21 06:41:55;;;;;;;;;0.00;0.00;;;;;;;;6179744;23;45443;-87
2022/09/21 06:44:20;;;;;;;;;0.00;0.00;;;;;;;;6180230;23;45268;-86
2022/09/21 06:46:45;;;;;;;;;0.00;0.00;;;;;;;;6178404;23;45475;-89
2022/09/21 06:49:11;;;;;;;;;0.00;0.00;;;;;;;;6179879;23;45282;-87
2022/09/21 06:51:36;;;;;;;;;0.00;0.00;;;;;;;;6178231;23;46115;-87
2022/09/21 06:54:01;;;;;;;;;0.00;0.00;;;;;;;;6178241;23;45269;-87
2022/09/21 06:56:26;;;;;;;;;0.00;0.00;;;;;;;;6202863;22;45320;-87
2022/09/21 06:58:51;;;;;;;;;0.00;0.00;;;;;;;;6177551;23;45501;-87
2022/09/21 07:01:18;;;;;;;;;0.00;0.00;;;;;;;;6179619;23;46476;-87
2022/09/21 07:03:43;;;;;;;;;0.00;0.00;;;;;;;;6179495;23;45352;-87
2022/09/21 07:06:14;;;;;;;;;0.00;0.00;;;;;;;;6179560;23;45756;-85
2022/09/21 07:08:39;;;;;;;;;0.00;0.00;;;;;;;;6175011;23;45943;-87
2022/09/21 07:11:05;;;;;;;;;0.00;0.00;;;;;;;;6178666;23;45465;-87
2022/09/21 07:13:30;;;;;;;;;0.00;0.00;;;;;;;;6178553;23;45378;-85
2022/09/21 07:15:55;;;;;;;;;0.00;0.00;;;;;;;;6174920;23;45303;-86
2022/09/21 07:18:20;;;;;;;;;0.00;0.00;;;;;;;;6178685;23;45293;-90
2022/09/21 07:20:47;;;;;;;;;0.00;0.00;;;;;;;;6176587;23;47404;-92
2022/09/21 07:23:14;;;;;;;;;0.00;0.00;;;;;;;;6178872;23;45512;-92
2022/09/21 07:25:39;;;;;;;;;0.00;0.00;;;;;;;;6178345;23;45267;-91
2022/09/21 07:28:05;;;;;;;;;0.00;0.00;;;;;;;;6176828;23;45303;-90
2022/09/21 07:30:30;;;;;;;;;0.00;0.00;;;;;;;;6178522;22;45581;-92
2022/09/21 07:32:55;;;;;;;;;0.00;0.00;;;;;;;;6178800;23;45822;-91
2022/09/21 07:35:20;;;;;;;;;0.00;0.00;;;;;;;;6170239;23;45838;-91
2022/09/21 07:37:45;;;;;;;;;0.00;0.00;;;;;;;;6201796;22;45570;-91
2022/09/21 07:40:11;;;;;;;;;0.00;0.00;;;;;;;;6202122;22;48009;-92
2022/09/21 07:42:36;;;;;;;;;0.00;0.00;;;;;;;;6203001;22;45591;-92
2022/09/21 07:45:01;;;;;;;;;0.00;0.00;;;;;;;;6179315;23;45386;-91
2022/09/21 07:47:27;;;;;;;;;0.00;0.00;;;;;;;;6177012;23;45318;-92
2022/09/21 07:49:52;;;;;;;;;0.00;0.00;;;;;;;;6201551;22;47737;-89
2022/09/21 07:52:18;;;;;;;;;0.00;0.00;;;;;;;;6176774;23;45420;-89
2022/09/21 07:54:43;;;;;;;;;0.00;0.00;;;;;;;;6177484;23;45444;-92
2022/09/21 07:59:55;;;;;;;;;0.00;0.00;;;;;;;;6180011;23;45357;-94
2022/09/21 08:02:20;;;;;;;;;0.00;0.00;;;;;;;;6179428;23;45655;-90
2022/09/21 08:04:45;;;;;;;;;0.00;0.00;;;;;;;;6178392;22;45364;-87
2022/09/21 08:07:11;;;;;;;;;0.00;0.00;;;;;;;;6173427;23;45570;-87
2022/09/21 08:09:36;;;;;;;;;0.00;0.00;;;;;;;;6202056;22;47457;-91
2022/09/21 08:12:01;;;;;;;;;0.00;0.00;;;;;;;;6178472;23;45400;-88
2022/09/21 08:14:28;;;;;;;;;0.00;0.00;;;;;;;;6175956;23;45409;-88
2022/09/21 08:16:53;;;;;;;;;0.00;0.00;;;;;;;;6174982;23;45564;-88
2022/09/21 08:19:19;;;;;;;;;0.00;0.00;;;;;;;;6172103;23;45728;-88
2022/09/21 08:21:48;;;;;;;;;0.00;0.00;;;;;;;;6178408;23;45318;-89
2022/09/21 08:24:13;;;;;;;;;0.00;0.00;;;;;;;;6177063;23;45431;-89
2022/09/21 08:26:39;;;;;;;;;0.00;0.00;;;;;;;;6176904;23;45486;-89
2022/09/21 08:29:06;;;;;;;;;0.00;0.00;;;;;;;;6173133;23;47589;-88
2022/09/21 08:31:31;;;;;;;;;0.00;0.00;;;;;;;;6175177;23;45657;-90
2022/09/21 08:33:56;;;;;;;;;0.00;0.00;;;;;;;;6175846;23;45407;-89
2022/09/21 08:36:22;;;;;;;;;0.00;0.00;;;;;;;;6200958;22;45349;-89
2022/09/21 08:38:47;;;;;;;;;0.00;0.00;;;;;;;;6199824;22;47445;-90
2022/09/21 08:41:21;;;;;;;;;0.00;0.00;;;;;;;;6201830;22;45400;-90
2022/09/21 08:43:56;;;;;;;;;0.00;0.00;;;;;;;;6178072;23;45203;-89
2022/09/21 08:46:23;;;;;;;;;0.00;0.00;;;;;;;;6169799;23;45775;-89
2022/09/21 08:48:53;;;;;;;;;0.00;0.00;;;;;;;;6174087;23;45568;-87
2022/09/21 08:51:23;;;;;;;;;0.00;0.00;;;;;;;;6200548;22;45351;-87
2022/09/21 08:53:51;;;;;;;;;0.00;0.00;;;;;;;;6172829;23;45366;-89
2022/09/21 08:56:16;;;;;;;;;0.00;0.00;;;;;;;;6178059;23;45586;-89
2022/09/21 08:58:42;;;;;;;;;0.00;0.00;;;;;;;;6173733;23;47935;-89
2022/09/21 09:01:20;;;;;;;;;0.00;0.00;;;;;;;;6175557;23;45525;-88
2022/09/21 09:04:04;;;;;;;;;0.00;0.00;;;;;;;;6174274;23;45212;-88
2022/09/21 09:06:45;;;;;;;;;0.00;0.00;;;;;;;;6174469;23;45476;-90
2022/09/21 09:09:18;;;;;;;;;0.00;0.00;;;;;;;;6170526;23;47303;-89
2022/09/21 09:11:58;;;;;;;;;0.00;0.00;;;;;;;;6177305;23;46306;-90
2022/09/21 09:14:37;;;;;;;;;0.00;0.00;;;;;;;;6178720;23;45367;-94
2022/09/21 09:17:17;;;;;;;;;0.00;0.00;;;;;;;;6201147;22;45447;-89
2022/09/21 09:19:46;;;;;;;;;0.00;0.00;;;;;;;;6178200;23;46530;-90
2022/09/21 09:22:14;;;;;;;;;0.00;0.00;;;;;;;;6175469;23;46135;-89
2022/09/21 09:24:39;;;;;;;;;0.00;0.00;;;;;;;;6178869;23;45477;-89
2022/09/21 09:27:14;;;;;;;;;0.00;0.00;;;;;;;;6176195;23;45406;-93
2022/09/21 09:29:39;;;;;;;;;0.00;0.00;;;;;;;;6179520;23;48056;-89
2022/09/21 09:32:10;;;;;;;;;0.00;0.00;;;;;;;;6181542;23;45999;-89
2022/09/21 09:34:39;;;;;;;;;0.00;0.00;;;;;;;;6178485;23;45290;-90
2022/09/21 09:37:14;;;;;;;;;0.00;0.00;;;;;;;;6180065;23;45302;-91
2022/09/21 09:39:41;;;;;;;;;0.00;0.00;;;;;;;;6203273;22;48500;-93
2022/09/21 09:42:25;;;;;;;;;0.00;0.00;;;;;;;;6200203;22;45660;-92
2022/09/21 09:44:59;;;;;;;;;0.00;0.00;;;;;;;;6178307;23;45292;-92
2022/09/21 09:47:24;;;;;;;;;0.00;0.00;;;;;;;;6179809;23;45389;-91
2022/09/21 09:49:59;;;;;;;;;0.00;0.00;;;;;;;;6181883;23;46313;-92
2022/09/21 09:52:24;;;;;;;;;0.00;0.00;;;;;;;;6182348;22;45263;-91
2022/09/21 09:54:49;;;;;;;;;0.00;0.00;;;;;;;;6207225;22;45473;-93
2022/09/21 09:57:19;;;;;;;;;0.00;0.00;;;;;;;;6182302;23;45239;-93
2022/09/21 09:59:52;;;;;;;;;0.00;0.00;;;;;;;;6183164;23;46229;-92
2022/09/21 10:02:19;;;;;;;;;0.00;0.00;;;;;;;;6179741;23;45507;-89
2022/09/21 10:04:53;;;;;;;;;0.00;0.00;;;;;;;;6178992;23;45340;-90
2022/09/21 10:07:19;;;;;;;;;0.00;0.00;;;;;;;;6179802;23;45392;-90
2022/09/21 10:09:44;;;;;;;;;0.00;0.00;;;;;;;;6203947;22;47398;-91
2022/09/21 10:12:23;;;;;;;;;0.00;0.00;;;;;;;;6178657;23;46464;-91
2022/09/21 10:14:49;;;;;;;;;0.00;0.00;;;;;;;;6176862;23;45373;-89
2022/09/21 10:17:15;;;;;;;;;0.00;0.00;;;;;;;;6177759;23;45445;-90
2022/09/21 10:19:40;;;;;;;;;0.00;0.00;;;;;;;;6180434;23;45464;-89
2022/09/21 10:22:06;;;;;;;;;0.00;0.00;;;;;;;;6204347;22;45328;-89
2022/09/21 10:24:39;;;;;;;;;0.00;0.00;;;;;;;;6181404;22;45381;-92
2022/09/21 10:27:05;;;;;;;;;0.00;0.00;;;;;;;;6181232;23;45251;-89
2022/09/21 10:29:32;;;;;;;;;0.00;0.00;;;;;;;;6180559;23;45427;-89
2022/09/21 10:32:05;;;;;;;;;0.00;0.00;;;;;;;;6180432;23;45342;-88
2022/09/21 10:34:31;;;;;;;;;0.00;0.00;;;;;;;;6180757;23;45408;-90
2022/09/21 10:37:01;;;;;;;;;0.00;0.00;;;;;;;;6183589;23;45300;-92
2022/09/21 10:39:27;;;;;;;;;0.00;0.00;;;;;;;;6180643;23;48426;-92
2022/09/21 10:41:52;;;;;;;;;0.00;0.00;;;;;;;;6181326;23;45303;-91
2022/09/21 10:44:19;;;;;;;;;0.00;0.00;;;;;;;;6179661;23;45263;-89
2022/09/21 10:46:46;;;;;;;;;0.00;0.00;;;;;;;;6187731;23;45247;-91
2022/09/21 10:49:21;;;;;;;;;0.00;0.00;;;;;;;;6187204;23;45497;-95
2022/09/21 10:51:48;;;;;;;;;0.00;0.00;;;;;;;;6182670;23;45401;-92
2022/09/21 10:54:22;;;;;;;;;0.00;0.00;;;;;;;;6180588;23;45479;-89
2022/09/21 10:57:00;;;;;;;;;0.00;0.00;;;;;;;;6179290;23;45538;-87
2022/09/21 10:59:28;;;;;;;;;0.00;0.00;;;;;;;;6204852;22;47072;-93
2022/09/21 11:02:00;;;;;;;;;0.00;0.00;;;;;;;;6182094;23;45366;-96
2022/09/21 11:04:31;;;;;;;;;0.00;0.00;;;;;;;;6180857;23;45350;-94
2022/09/21 11:07:04;;;;;;;;;0.00;0.00;;;;;;;;6182009;23;45574;-93
2022/09/21 11:10:02;;;;;;;;;0.00;0.00;;;;;;;;6183217;23;47254;-96
2022/09/21 11:12:27;;;;;;;;;0.00;0.00;;;;;;;;6180534;23;45320;-95
2022/09/21 11:14:58;;;;;;;;;0.00;0.00;;;;;;;;6182446;23;45391;-94
2022/09/21 11:17:45;;;;;;;;;0.00;0.00;;;;;;;;6181456;23;45342;-96
2022/09/21 11:20:17;;;;;;;;;0.00;0.00;;;;;;;;6183263;23;47194;-94
2022/09/21 11:22:55;;;;;;;;;0.00;0.00;;;;;;;;6194503;23;45355;-95
2022/09/21 11:25:39;;;;;;;;;0.00;0.00;;;;;;;;6187476;23;45386;-95
2022/09/21 11:28:12;;;;;;;;;0.00;0.00;;;;;;;;6184579;23;44948;-94
2022/09/21 11:30:46;;;;;;;;;0.00;0.00;;;;;;;;6179410;23;47286;-92
2022/09/21 11:33:23;;;;;;;;;0.00;0.00;;;;;;;;6184247;23;45745;-92
2022/09/21 11:35:51;;;;;;;;;0.00;0.00;;;;;;;;6183641;23;45378;-92
2022/09/21 11:38:32;;;;;;;;;0.00;0.00;;;;;;;;6182602;23;45346;-93
2022/09/21 11:41:17;;;;;;;;;0.00;0.00;;;;;;;;6185067;23;47091;-91
2022/09/21 11:43:42;;;;;;;;;0.00;0.00;;;;;;;;6181302;23;45810;-93
2022/09/21 11:46:26;;;;;;;;;0.00;0.00;;;;;;;;6181656;23;45193;-93
2022/09/21 11:49:10;;;;;;;;;0.00;0.00;;;;;;;;6180707;23;45284;-95
2022/09/21 11:51:45;;;;;;;;;0.00;0.00;;;;;;;;6180652;23;47557;-94
2022/09/21 11:54:37;;;;;;;;;0.00;0.00;;;;;;;;6180629;23;45888;-95
2022/09/21 11:57:21;;;;;;;;;0.00;0.00;;;;;;;;6180438;23;45455;-92
2022/09/21 11:59:53;;;;;;;;;0.00;0.00;;;;;;;;6182522;23;45390;-95
2022/09/21 12:02:39;;;;;;;;;0.00;0.00;;;;;;;;6192380;23;47337;-95
2022/09/21 12:05:05;;;;;;;;;0.00;0.00;;;;;;;;6182167;23;45356;-93
2022/09/21 12:07:48;;;;;;;;;0.00;0.00;;;;;;;;6184613;23;45886;-91
2022/09/21 12:10:23;;;;;;;;;0.00;0.00;;;;;;;;6175890;23;45332;-88
2022/09/21 12:12:57;;;;;;;;;0.00;0.00;;;;;;;;6182726;23;47237;-95
2022/09/21 12:15:28;;;;;;;;;0.00;0.00;;;;;;;;6182177;23;45267;-90
2022/09/21 12:17:59;;;;;;;;;0.00;0.00;;;;;;;;6205559;22;45771;-96
2022/09/21 12:20:30;;;;;;;;;0.00;0.00;;;;;;;;6185552;23;45411;-93
2022/09/21 12:22:58;;;;;;;;;0.00;0.00;;;;;;;;6187600;23;47130;-92
2022/09/21 12:25:34;;;;;;;;;0.00;0.00;;;;;;;;6185492;23;45273;-92
2022/09/21 12:28:03;;;;;;;;;0.00;0.00;;;;;;;;6183709;23;45306;-93
2022/09/21 12:30:31;;;;;;;;;0.00;0.00;;;;;;;;6183703;23;45301;-92
2022/09/21 12:32:59;;;;;;;;;0.00;0.00;;;;;;;;6183850;23;47295;-93
2022/09/21 12:35:42;;;;;;;;;0.00;0.00;;;;;;;;6189410;23;45421;-93
2022/09/21 12:38:40;;;;;;;;;0.00;0.00;;;;;;;;6213896;22;45228;-95
2022/09/21 12:41:17;;;;;;;;;0.00;0.00;;;;;;;;6095488;23;45567;-95
2022/09/21 12:43:52;;;;;;;;;0.00;0.00;;;;;;;;6095246;23;45438;-92
2022/09/21 12:46:23;;;;;;;;;0.00;0.00;;;;;;;;6096346;23;45780;-94
2022/09/21 12:48:48;;;;;;;;;0.00;0.00;;;;;;;;6095772;23;45274;-94
2022/09/21 12:51:20;;;;;;;;;0.00;0.00;;;;;;;;6094552;23;45475;-94
2022/09/21 12:53:47;;;;;;;;;0.00;0.00;;;;;;;;6096654;23;46024;-95
2022/09/21 12:56:25;;;;;;;;;0.00;0.00;;;;;;;;6096133;23;45569;-94
2022/09/21 12:58:50;;;;;;;;;0.00;0.00;;;;;;;;6097124;23;45413;-94
2022/09/21 13:01:22;;;;;;;;;0.00;0.00;;;;;;;;6098594;23;44760;-93
2022/09/21 13:03:47;;;;;;;;;0.00;0.00;;;;;;;;6100761;23;47991;-94
2022/09/21 13:06:31;;;;;;;;;0.00;0.00;;;;;;;;6099927;23;45313;-95
2022/09/21 13:08:59;;;;;;;;;0.00;0.00;;;;;;;;6101343;23;45580;-93
2022/09/21 13:11:25;;;;;;;;;0.00;0.00;;;;;;;;6101232;23;45322;-93
2022/09/21 13:14:01;;;;;;;;;0.00;0.00;;;;;;;;6098715;23;46940;-93
2022/09/21 13:16:26;;;;;;;;;0.00;0.00;;;;;;;;6144430;22;44873;-93
2022/09/21 13:18:59;;;;;;;;;0.00;0.00;;;;;;;;6193769;23;45355;-93
2022/09/21 13:21:26;;;;;;;;;0.00;0.00;;;;;;;;6193240;23;45304;-94
2022/09/21 13:24:15;;;;;;;;;0.00;0.00;;;;;;;;6191206;23;47185;-93
2022/09/21 13:26:42;;;;;;;;;0.00;0.00;;;;;;;;6201519;22;45488;-93
2022/09/21 13:29:17;;;;;;;;;0.00;0.00;;;;;;;;6189474;23;45703;-94
2022/09/21 13:32:01;;;;;;;;;0.00;0.00;;;;;;;;6193506;23;45418;-93
2022/09/21 13:34:27;;;;;;;;;0.00;0.00;;;;;;;;6187488;23;47274;-93
2022/09/21 13:37:10;;;;;;;;;0.00;0.00;;;;;;;;6193725;23;45367;-95
2022/09/21 13:39:43;;;;;;;;;0.00;0.00;;;;;;;;6190401;23;45352;-95
2022/09/21 13:42:27;;;;;;;;;0.00;0.00;;;;;;;;6191419;23;45287;-93
2022/09/21 13:44:53;;;;;;;;;0.00;0.00;;;;;;;;6190227;23;47307;-94
2022/09/21 13:47:27;;;;;;;;;0.00;0.00;;;;;;;;6189587;23;45345;-93
2022/09/21 13:49:52;;;;;;;;;0.00;0.00;;;;;;;;6189966;23;45352;-93
2022/09/21 13:52:25;;;;;;;;;0.00;0.00;;;;;;;;6190158;23;44821;-94
2022/09/21 13:54:56;;;;;;;;;0.00;0.00;;;;;;;;6188707;23;47597;-95
2022/09/21 13:57:38;;;;;;;;;0.00;0.00;;;;;;;;6189586;23;46006;-94
2022/09/21 14:00:22;;;;;;;;;0.00;0.00;;;;;;;;6189002;23;45447;-93
2022/09/21 14:02:48;;;;;;;;;0.00;0.00;;;;;;;;6190901;23;45318;-96
2022/09/21 14:05:34;;;;;;;;;0.00;0.00;;;;;;;;6190616;23;46904;-96
2022/09/21 14:08:00;;;;;;;;;0.00;0.00;;;;;;;;6189852;23;45334;-94
2022/09/21 14:10:27;;;;;;;;;0.00;0.00;;;;;;;;6186618;23;45319;-94
2022/09/21 14:12:52;;;;;;;;;0.00;0.00;;;;;;;;6190091;23;45318;-96
2022/09/21 14:15:21;;;;;;;;;0.00;0.00;;;;;;;;6189733;23;46911;-96
2022/09/21 14:18:06;;;;;;;;;0.00;0.00;;;;;;;;6194673;23;45450;-95
2022/09/21 14:20:32;;;;;;;;;0.00;0.00;;;;;;;;6194059;22;45277;-96
2022/09/21 14:23:13;;;;;;;;;0.00;0.00;;;;;;;;6197717;23;44808;-96
2022/09/21 14:25:52;;;;;;;;;0.00;0.00;;;;;;;;6192870;23;46992;-95
2022/09/21 14:28:21;;;;;;;;;0.00;0.00;;;;;;;;6194421;23;45271;-96
2022/09/21 14:30:53;;;;;;;;;0.00;0.00;;;;;;;;6172402;23;45231;-88
2022/09/21 14:33:28;;;;;;;;;0.00;0.00;;;;;;;;6195171;23;45355;-96
2022/09/21 14:35:54;;;;;;;;;0.00;0.00;;;;;;;;6172947;23;47214;-93
2022/09/21 14:38:32;;;;;;;;;1.00;1.00;;;;;;;;6196404;23;44790;-94
2022/09/21 14:41:06;;;;;;;;;0.00;0.00;;;;;;;;6194262;23;45510;-94
2022/09/21 14:43:36;;;;;;;;;0.00;0.00;;;;;;;;6196095;23;45362;-92
2022/09/21 14:46:20;;;;;;;;;0.00;0.00;;;;;;;;6192346;23;47291;-91
2022/09/21 14:48:49;;;;;;;;;0.00;0.00;;;;;;;;6187365;23;45893;-90
2022/09/21 14:51:28;;;;;;;;;0.00;0.00;;;;;;;;6183262;23;45301;-92
2022/09/21 14:54:05;;;;;;;;;0.00;0.00;;;;;;;;6186202;23;45254;-90
2022/09/21 14:56:30;;;;;;;;;0.00;0.00;;;;;;;;6183738;23;47970;-91
2022/09/21 14:59:14;;;;;;;;;0.00;0.00;;;;;;;;6181943;23;46070;-92
2022/09/21 15:01:41;;;;;;;;;0.00;0.00;;;;;;;;6185933;23;45183;-91
2022/09/21 15:04:06;;;;;;;;;0.00;0.00;;;;;;;;6178909;23;45332;-91
2022/09/21 15:12:51;;;;;;;;;0.00;0.00;;;;;;;;6180467;23;45277;-90
2022/09/21 15:15:19;;;;;;;;;0.00;0.00;;;;;;;;6183157;23;45326;-91
2022/09/21 15:17:57;;;;;;;;;0.00;0.00;;;;;;;;6181391;23;48278;-91
2022/09/21 15:20:23;;;;;;;;;0.00;0.00;;;;;;;;6179054;23;45377;-92
2022/09/21 15:22:52;;;;;;;;;0.00;0.00;;;;;;;;6180137;23;45534;-91
2022/09/21 15:25:18;;;;;;;;;0.00;0.00;;;;;;;;6179226;23;45490;-92
2022/09/21 15:27:45;;;;;;;;;0.00;0.00;;;;;;;;6178892;23;48002;-93
2022/09/21 15:30:19;;;;;;;;;0.00;0.00;;;;;;;;6205069;22;45627;-95
2022/09/21 15:32:46;;;;;;;;;0.00;0.00;;;;;;;;6182079;23;45395;-92
2022/09/21 15:35:14;;;;;;;;;0.00;0.00;;;;;;;;6178750;23;45485;-91
2022/09/21 15:37:40;;;;;;;;;0.00;0.00;;;;;;;;6175579;23;47561;-91
2022/09/21 15:40:13;;;;;;;;;0.00;0.00;;;;;;;;6174628;23;45542;-93
2022/09/21 15:42:49;;;;;;;;;0.00;0.00;;;;;;;;6180538;23;45377;-93
2022/09/21 15:45:16;;;;;;;;;0.00;0.00;;;;;;;;6178799;23;45277;-91
2022/09/21 15:47:43;;;;;;;;;0.00;0.00;;;;;;;;6178812;23;48342;-92
2022/09/21 15:50:16;;;;;;;;;0.00;0.00;;;;;;;;6178436;23;45800;-92
2022/09/21 15:52:45;;;;;;;;;0.00;0.00;;;;;;;;6180178;23;45349;-91
2022/09/21 15:55:18;;;;;;;;;0.00;0.00;;;;;;;;6207010;22;45339;-92
2022/09/21 15:57:43;;;;;;;;;0.00;0.00;;;;;;;;6182112;23;47981;-91
2022/09/21 16:00:14;;;;;;;;;0.00;0.00;;;;;;;;6181661;23;45745;-93
2022/09/21 16:02:41;;;;;;;;;0.00;0.00;;;;;;;;6182312;23;45402;-92
2022/09/21 16:05:12;;;;;;;;;0.00;0.00;;;;;;;;6185132;23;45258;-91
2022/09/21 16:07:37;;;;;;;;;0.00;0.00;;;;;;;;6182454;23;47238;-93
2022/09/21 16:10:22;;;;;;;;;0.00;0.00;;;;;;;;6182391;23;45689;-93
2022/09/21 16:12:48;;;;;;;;;0.00;0.00;;;;;;;;6181908;23;45311;-92
2022/09/21 16:15:21;;;;;;;;;0.00;0.00;;;;;;;;6181468;23;45595;-93
2022/09/21 16:17:56;;;;;;;;;0.00;0.00;;;;;;;;6180461;23;48609;-92
2022/09/21 16:20:22;;;;;;;;;0.00;0.00;;;;;;;;6183104;23;45208;-93
2022/09/21 16:22:49;;;;;;;;;0.00;0.00;;;;;;;;6185191;23;45259;-94
2022/09/21 16:25:36;;;;;;;;;0.00;0.00;;;;;;;;6184919;23;45566;-92
2022/09/21 16:28:04;;;;;;;;;0.00;0.00;;;;;;;;6181632;23;47295;-92
2022/09/21 16:30:41;;;;;;;;;0.00;0.00;;;;;;;;6181528;23;45276;-93
2022/09/21 16:33:25;;;;;;;;;0.00;0.00;;;;;;;;6188745;23;45220;-93
2022/09/21 16:35:50;;;;;;;;;0.00;0.00;;;;;;;;6183035;23;45296;-93
2022/09/21 16:38:16;;;;;;;;;0.00;0.00;;;;;;;;6206854;22;46933;-93
2022/09/21 16:40:41;;;;;;;;;0.00;0.00;;;;;;;;6179901;23;45529;-92
2022/09/21 16:43:09;;;;;;;;;0.00;0.00;;;;;;;;6182494;23;45439;-92
2022/09/21 16:45:34;;;;;;;;;0.00;0.00;;;;;;;;6177666;23;45470;-93
2022/09/21 16:48:03;;;;;;;;;0.00;0.00;;;;;;;;6176618;23;45371;-92
2022/09/21 16:50:29;;;;;;;;;0.00;0.00;;;;;;;;6175900;23;45820;-92
2022/09/21 16:52:54;;;;;;;;;0.00;0.00;;;;;;;;6178108;23;45476;-93
2022/09/21 16:55:19;;;;;;;;;0.00;0.00;;;;;;;;6175745;23;45594;-91